Time;durP1;ratioP1;P1;durP2;ratioP2;P2;SDS_P1;SDS_P2;PMS_P1;PMS_P2;Temp;Humidity;BMP_temperature;BMP_pressure;BME280_temperature;BME280_humidity;BME280_pressure;Samples;Min_cycle;Max_cycle;Signal;HPM_P1;HPM_P2
2021/08/07 00:00:13;;;;;;;3.47;2.35;;;;;;;;;;4953628;29;20035;-70
2021/08/07 00:02:40;;;;;;;4.15;2.17;;;;;;;;;;4953537;28;20102;-64
2021/08/07 00:05:07;;;;;;;3.03;1.92;;;;;;;;;;4954063;29;20877;-69
2021/08/07 00:07:34;;;;;;;3.42;2.00;;;;;;;;;;4953412;28;20118;-67
2021/08/07 00:10:01;;;;;;;2.75;2.10;;;;;;;;;;4953538;28;20070;-67
2021/08/07 00:12:27;;;;;;;2.78;2.20;;;;;;;;;;4953449;29;20023;-68
2021/08/07 00:14:53;;;;;;;2.55;2.10;;;;;;;;;;4952785;29;20119;-69
2021/08/07 00:17:19;;;;;;;2.53;2.17;;;;;;;;;;4953259;29;20050;-67
2021/08/07 00:19:45;;;;;;;4.55;2.28;;;;;;;;;;4953225;29;20389;-69
2021/08/07 00:22:11;;;;;;;4.75;2.33;;;;;;;;;;4953024;29;20503;-69
2021/08/07 00:24:37;;;;;;;4.38;2.20;;;;;;;;;;4953113;29;20393;-69
2021/08/07 00:27:03;;;;;;;6.65;2.30;;;;;;;;;;4953897;29;20358;-70
2021/08/07 00:29:35;;;;;;;2.72;1.80;;;;;;;;;;4952676;29;20473;-66
2021/08/07 00:32:01;;;;;;;3.90;2.10;;;;;;;;;;4953073;29;20031;-69
2021/08/07 00:34:27;;;;;;;2.55;2.10;;;;;;;;;;4952450;29;20027;-66
2021/08/07 00:36:53;;;;;;;3.78;2.08;;;;;;;;;;4952822;29;20027;-70
2021/08/07 00:39:22;;;;;;;2.28;1.88;;;;;;;;;;4953315;28;20035;-69
2021/08/07 00:41:48;;;;;;;2.78;2.20;;;;;;;;;;4952958;29;20022;-69
2021/08/07 00:44:14;;;;;;;4.47;2.33;;;;;;;;;;4953421;29;20033;-66
2021/08/07 00:46:40;;;;;;;5.35;2.45;;;;;;;;;;4954890;28;20031;-70
2021/08/07 00:49:18;;;;;;;3.33;2.40;;;;;;;;;;4963066;29;20023;-69
2021/08/07 00:51:47;;;;;;;2.35;2.15;;;;;;;;;;4936854;29;20043;-69
2021/08/07 00:54:14;;;;;;;2.67;2.20;;;;;;;;;;4953318;29;20078;-71
2021/08/07 00:56:40;;;;;;;4.60;2.22;;;;;;;;;;4953009;29;20030;-67
2021/08/07 00:59:06;;;;;;;2.97;2.20;;;;;;;;;;4952877;29;20416;-68
2021/08/07 01:01:37;;;;;;;3.38;2.20;;;;;;;;;;4952779;29;20075;-68
2021/08/07 01:04:05;;;;;;;3.53;2.20;;;;;;;;;;4953005;29;20055;-68
2021/08/07 01:06:41;;;;;;;2.80;2.10;;;;;;;;;;4952566;29;20051;-69
2021/08/07 01:09:15;;;;;;;2.00;1.90;;;;;;;;;;4953031;28;20207;-64
2021/08/07 01:11:42;;;;;;;2.63;2.00;;;;;;;;;;4952488;29;20055;-68
2021/08/07 01:14:08;;;;;;;2.72;1.95;;;;;;;;;;4952918;28;20102;-67
2021/08/07 01:16:37;;;;;;;4.15;2.08;;;;;;;;;;4949688;29;20031;-69
2021/08/07 01:19:04;;;;;;;2.13;1.85;;;;;;;;;;4952634;29;20059;-69
2021/08/07 01:21:33;;;;;;;5.82;2.20;;;;;;;;;;4954310;28;20054;-69
2021/08/07 01:24:02;;;;;;;3.63;2.28;;;;;;;;;;4955860;29;20138;-69
2021/08/07 01:26:33;;;;;;;3.15;2.00;;;;;;;;;;4956488;29;20058;-66
2021/08/07 01:28:59;;;;;;;2.35;2.05;;;;;;;;;;4955674;29;20054;-68
2021/08/07 01:31:28;;;;;;;3.47;2.20;;;;;;;;;;4955531;28;20860;-68
2021/08/07 01:33:55;;;;;;;2.63;1.95;;;;;;;;;;4954654;29;20027;-69
2021/08/07 01:36:21;;;;;;;3.65;2.20;;;;;;;;;;4955242;29;20027;-69
2021/08/07 01:38:47;;;;;;;2.10;1.90;;;;;;;;;;4955455;29;20074;-69
2021/08/07 01:41:15;;;;;;;3.33;2.00;;;;;;;;;;4955929;29;20033;-67
2021/08/07 01:43:41;;;;;;;2.05;1.85;;;;;;;;;;4956208;29;20077;-68
2021/08/07 01:46:08;;;;;;;1.98;1.88;;;;;;;;;;4955640;29;20566;-68
2021/08/07 01:48:40;;;;;;;2.70;2.08;;;;;;;;;;4956304;29;20027;-68
2021/08/07 01:51:20;;;;;;;2.10;1.90;;;;;;;;;;4955491;29;20065;-68
2021/08/07 01:53:48;;;;;;;2.15;1.95;;;;;;;;;;4955822;29;20023;-68
2021/08/07 01:56:22;;;;;;;2.75;2.10;;;;;;;;;;4955779;29;20031;-69
2021/08/07 01:59:12;;;;;;;2.22;2.05;;;;;;;;;;4953863;28;20701;-67
2021/08/07 02:01:38;;;;;;;2.20;2.00;;;;;;;;;;4915079;29;20566;-69
2021/08/07 02:04:04;;;;;;;3.75;2.20;;;;;;;;;;4915286;29;20056;-68
2021/08/07 02:06:32;;;;;;;2.28;1.98;;;;;;;;;;4923265;29;20036;-71
2021/08/07 02:08:59;;;;;;;2.45;2.10;;;;;;;;;;4935646;29;20070;-69
2021/08/07 02:11:25;;;;;;;2.10;1.90;;;;;;;;;;4934315;29;20071;-69
2021/08/07 02:13:52;;;;;;;1.90;1.80;;;;;;;;;;4934119;29;20043;-69
2021/08/07 02:16:21;;;;;;;2.40;1.98;;;;;;;;;;4926526;29;20032;-69
2021/08/07 02:18:47;;;;;;;4.47;2.33;;;;;;;;;;4933489;29;20560;-70
2021/08/07 02:21:15;;;;;;;1.92;1.77;;;;;;;;;;4933676;29;20110;-69
2021/08/07 02:23:41;;;;;;;2.38;1.90;;;;;;;;;;4933803;29;20031;-70
2021/08/07 02:26:08;;;;;;;2.05;1.90;;;;;;;;;;4933440;29;20072;-69
2021/08/07 02:28:34;;;;;;;2.22;2.00;;;;;;;;;;4933829;29;20043;-70
2021/08/07 02:31:01;;;;;;;1.95;1.85;;;;;;;;;;4933525;29;20046;-68
2021/08/07 02:33:29;;;;;;;2.30;2.10;;;;;;;;;;4933085;29;20506;-69
2021/08/07 02:35:56;;;;;;;2.95;2.13;;;;;;;;;;4933217;29;20046;-67
2021/08/07 02:38:26;;;;;;;3.40;2.08;;;;;;;;;;4941486;29;20051;-69
2021/08/07 02:40:53;;;;;;;2.75;1.90;;;;;;;;;;4954930;28;20446;-66
2021/08/07 02:43:24;;;;;;;4.43;2.25;;;;;;;;;;4954641;29;20113;-67
2021/08/07 02:45:50;;;;;;;1.90;1.80;;;;;;;;;;4955084;28;20095;-69
2021/08/07 02:48:16;;;;;;;3.08;2.13;;;;;;;;;;4954685;28;20065;-69
2021/08/07 02:50:43;;;;;;;2.10;1.90;;;;;;;;;;4952871;29;20470;-69
2021/08/07 02:53:11;;;;;;;2.17;1.90;;;;;;;;;;4954459;28;20031;-68
2021/08/07 02:55:37;;;;;;;2.20;2.00;;;;;;;;;;4954508;28;20077;-64
2021/08/07 02:58:03;;;;;;;3.70;1.90;;;;;;;;;;4954538;28;20449;-67
2021/08/07 03:00:30;;;;;;;2.80;2.00;;;;;;;;;;4946608;29;20027;-69
2021/08/07 03:02:56;;;;;;;2.55;2.10;;;;;;;;;;4954587;28;20102;-70
2021/08/07 03:05:23;;;;;;;3.38;2.00;;;;;;;;;;4952698;29;20449;-65
2021/08/07 03:07:49;;;;;;;3.78;2.17;;;;;;;;;;4954372;28;20055;-70
2021/08/07 03:10:15;;;;;;;2.45;2.10;;;;;;;;;;4953840;29;20035;-69
2021/08/07 03:12:44;;;;;;;2.85;2.17;;;;;;;;;;4954145;29;20086;-70
2021/08/07 03:15:10;;;;;;;4.40;2.33;;;;;;;;;;4954230;29;20031;-69
2021/08/07 03:17:52;;;;;;;2.83;1.98;;;;;;;;;;4959711;29;20067;-70
2021/08/07 03:20:31;;;;;;;2.38;2.10;;;;;;;;;;4952321;28;20070;-69
2021/08/07 03:22:58;;;;;;;3.13;2.33;;;;;;;;;;4954262;29;20043;-69
2021/08/07 03:25:25;;;;;;;2.92;2.25;;;;;;;;;;4953701;29;20035;-67
2021/08/07 03:27:51;;;;;;;5.05;2.00;;;;;;;;;;4937203;29;20442;-70
2021/08/07 03:30:17;;;;;;;2.88;2.28;;;;;;;;;;4953729;29;20553;-64
2021/08/07 03:32:43;;;;;;;4.20;2.20;;;;;;;;;;4953771;29;20481;-69
2021/08/07 03:35:09;;;;;;;4.65;2.38;;;;;;;;;;4953817;29;20497;-68
2021/08/07 03:37:35;;;;;;;4.72;2.35;;;;;;;;;;4953579;29;20062;-68
2021/08/07 03:40:01;;;;;;;3.30;2.50;;;;;;;;;;4953496;29;20027;-70
2021/08/07 03:42:27;;;;;;;4.63;2.53;;;;;;;;;;4953510;29;20077;-69
2021/08/07 03:44:55;;;;;;;4.13;2.40;;;;;;;;;;4953509;28;20030;-69
2021/08/07 03:47:23;;;;;;;7.22;2.38;;;;;;;;;;4955441;29;20026;-69
2021/08/07 03:49:50;;;;;;;4.15;2.42;;;;;;;;;;4953908;29;20049;-70
2021/08/07 03:52:16;;;;;;;5.90;2.42;;;;;;;;;;4953604;29;20547;-66
2021/08/07 03:54:42;;;;;;;4.55;2.60;;;;;;;;;;4953356;29;20035;-70
2021/08/07 03:57:10;;;;;;;4.93;2.80;;;;;;;;;;4953910;28;20038;-70
2021/08/07 03:59:36;;;;;;;4.10;2.50;;;;;;;;;;4954070;29;20037;-63
2021/08/07 04:02:02;;;;;;;3.95;2.70;;;;;;;;;;4953267;28;20070;-69
2021/08/07 04:04:28;;;;;;;4.35;2.60;;;;;;;;;;4936061;29;20493;-69
2021/08/07 04:06:54;;;;;;;4.88;2.38;;;;;;;;;;4952735;29;20385;-63
2021/08/07 04:09:20;;;;;;;4.43;2.70;;;;;;;;;;4953281;28;20459;-69
2021/08/07 04:11:47;;;;;;;5.07;2.60;;;;;;;;;;4953259;29;20110;-64
2021/08/07 04:14:13;;;;;;;3.05;2.35;;;;;;;;;;4953490;29;20034;-69
2021/08/07 04:16:39;;;;;;;3.53;2.40;;;;;;;;;;4953172;29;20023;-65
2021/08/07 04:19:05;;;;;;;5.03;2.60;;;;;;;;;;4952982;29;20047;-70
2021/08/07 04:21:31;;;;;;;7.60;2.55;;;;;;;;;;4951468;28;20027;-69
2021/08/07 04:23:57;;;;;;;21.52;4.10;;;;;;;;;;4951297;29;20081;-65
2021/08/07 04:26:23;;;;;;;16.65;3.38;;;;;;;;;;4953726;29;20469;-68
2021/08/07 04:28:49;;;;;;;10.98;2.92;;;;;;;;;;4952992;29;21502;-63
2021/08/07 04:31:15;;;;;;;10.45;2.88;;;;;;;;;;4952836;28;20027;-69
2021/08/07 04:33:41;;;;;;;3.25;2.40;;;;;;;;;;4948903;28;20024;-70
2021/08/07 04:36:07;;;;;;;4.82;2.70;;;;;;;;;;4953127;28;20489;-68
2021/08/07 04:38:33;;;;;;;6.47;2.42;;;;;;;;;;4952388;29;20401;-67
2021/08/07 04:40:59;;;;;;;4.90;2.50;;;;;;;;;;4952689;28;20020;-65
2021/08/07 04:43:27;;;;;;;5.30;2.45;;;;;;;;;;4952939;29;20019;-72
2021/08/07 04:45:53;;;;;;;3.95;2.30;;;;;;;;;;4952887;29;20035;-72
2021/08/07 04:48:19;;;;;;;2.90;2.30;;;;;;;;;;4953082;29;20086;-69
2021/08/07 04:50:45;;;;;;;5.80;2.33;;;;;;;;;;4952454;29;20027;-63
2021/08/07 04:53:13;;;;;;;3.95;2.35;;;;;;;;;;4953918;28;20031;-73
2021/08/07 04:55:40;;;;;;;2.88;2.30;;;;;;;;;;4951779;28;20441;-63
2021/08/07 04:58:06;;;;;;;2.55;2.17;;;;;;;;;;4957591;28;20038;-70
2021/08/07 05:00:32;;;;;;;5.65;2.42;;;;;;;;;;4956908;29;20028;-70
2021/08/07 05:02:58;;;;;;;4.43;2.40;;;;;;;;;;4956160;29;20035;-67
2021/08/07 05:05:24;;;;;;;4.70;2.60;;;;;;;;;;4956005;29;20051;-65
2021/08/07 05:07:50;;;;;;;3.33;2.20;;;;;;;;;;4956165;28;20051;-69
2021/08/07 05:10:16;;;;;;;4.75;2.40;;;;;;;;;;4956959;28;20087;-64
2021/08/07 05:12:42;;;;;;;4.15;2.33;;;;;;;;;;4957023;29;20077;-64
2021/08/07 05:15:09;;;;;;;6.97;2.30;;;;;;;;;;4956503;29;20114;-63
2021/08/07 05:17:35;;;;;;;3.40;2.20;;;;;;;;;;4956212;29;20019;-73
2021/08/07 05:20:01;;;;;;;5.25;2.60;;;;;;;;;;4956461;29;20555;-65
2021/08/07 05:22:27;;;;;;;5.40;2.90;;;;;;;;;;4955467;29;20089;-75
2021/08/07 05:24:53;;;;;;;10.55;3.40;;;;;;;;;;4955883;29;20111;-76
2021/08/07 05:27:25;;;;;;;5.63;2.50;;;;;;;;;;4942156;29;20034;-73
2021/08/07 05:29:52;;;;;;;;;;;;;;;;;;4961136;28;20460;-63
2021/08/07 05:32:18;;;;;;;4.38;2.40;;;;;;;;;;4956270;29;20066;-73
2021/08/07 05:34:48;;;;;;;4.50;2.55;;;;;;;;;;4955995;29;20390;-73
2021/08/07 05:37:14;;;;;;;6.20;2.55;;;;;;;;;;4954997;28;20035;-66
2021/08/07 05:39:40;;;;;;;6.03;3.20;;;;;;;;;;4955884;29;20591;-69
2021/08/07 05:42:06;;;;;;;10.10;3.53;;;;;;;;;;4955480;29;20383;-74
2021/08/07 05:44:32;;;;;;;16.80;3.40;;;;;;;;;;4955237;29;20089;-72
2021/08/07 05:46:58;;;;;;;6.32;3.10;;;;;;;;;;4955553;29;20082;-67
2021/08/07 05:49:24;;;;;;;7.22;3.20;;;;;;;;;;4938950;29;20023;-66
2021/08/07 05:51:50;;;;;;;8.60;2.95;;;;;;;;;;4954772;29;20091;-71
2021/08/07 05:54:17;;;;;;;8.48;3.05;;;;;;;;;;4955827;29;20043;-66
2021/08/07 05:56:43;;;;;;;5.35;2.92;;;;;;;;;;4955687;29;20030;-74
2021/08/07 05:59:09;;;;;;;8.93;3.08;;;;;;;;;;4954557;29;20130;-66
2021/08/07 06:01:35;;;;;;;7.90;2.83;;;;;;;;;;4955317;28;20031;-65
2021/08/07 06:04:01;;;;;;;6.03;3.10;;;;;;;;;;4955441;29;20090;-69
2021/08/07 06:06:28;;;;;;;11.13;3.75;;;;;;;;;;4953695;28;20151;-65
2021/08/07 06:08:54;;;;;;;7.93;4.03;;;;;;;;;;4954482;28;20563;-73
2021/08/07 06:11:20;;;;;;;8.43;4.28;;;;;;;;;;4954735;29;20544;-65
2021/08/07 06:13:46;;;;;;;7.28;4.20;;;;;;;;;;4951394;29;20094;-69
2021/08/07 06:16:12;;;;;;;11.02;4.15;;;;;;;;;;4953719;28;20382;-69
2021/08/07 06:18:38;;;;;;;6.55;4.10;;;;;;;;;;4954390;28;20122;-68
2021/08/07 06:21:04;;;;;;;9.32;3.72;;;;;;;;;;4954686;29;20035;-72
2021/08/07 06:23:30;;;;;;;7.10;3.40;;;;;;;;;;4936439;29;20517;-74
2021/08/07 06:25:59;;;;;;;5.15;3.05;;;;;;;;;;4955045;29;20033;-67
2021/08/07 06:28:25;;;;;;;6.22;3.20;;;;;;;;;;4955139;29;20042;-65
2021/08/07 06:30:52;;;;;;;11.85;3.50;;;;;;;;;;4955738;29;20039;-67
2021/08/07 06:33:18;;;;;;;7.93;3.00;;;;;;;;;;4956553;29;20035;-70
2021/08/07 06:48:37;;;;;;;7.47;2.40;;;;;;;;;;5136088;27;20391;-72
2021/08/07 06:51:03;;;;;;;2.50;1.80;;;;;;;;;;5125171;27;20027;-73
2021/08/07 06:53:29;;;;;;;4.65;2.00;;;;;;;;;;5120736;28;20073;-65
2021/08/07 06:55:55;;;;;;;6.05;2.67;;;;;;;;;;5118218;28;20023;-65
2021/08/07 06:58:21;;;;;;;5.88;2.78;;;;;;;;;;5123212;28;20034;-70
2021/08/07 07:00:47;;;;;;;7.75;2.70;;;;;;;;;;5126869;28;20048;-69
2021/08/07 07:03:13;;;;;;;4.55;2.88;;;;;;;;;;5124468;28;20050;-67
2021/08/07 07:05:39;;;;;;;8.43;2.70;;;;;;;;;;5118705;28;20019;-69
2021/08/07 07:08:05;;;;;;;8.93;2.95;;;;;;;;;;5125045;28;20107;-73
2021/08/07 07:10:32;;;;;;;5.57;2.72;;;;;;;;;;5117945;28;20141;-66
2021/08/07 07:12:58;;;;;;;4.45;2.50;;;;;;;;;;5125634;28;20030;-70
2021/08/07 07:15:24;;;;;;;9.10;2.40;;;;;;;;;;5121878;28;20396;-70
2021/08/07 07:17:50;;;;;;;7.32;2.40;;;;;;;;;;5126234;28;20136;-71
2021/08/07 07:20:16;;;;;;;3.25;2.30;;;;;;;;;;5123874;28;20163;-73
2021/08/07 07:22:42;;;;;;;4.93;2.20;;;;;;;;;;5122962;28;20027;-65
2021/08/07 07:25:10;;;;;;;4.47;2.20;;;;;;;;;;5124393;28;20168;-72
2021/08/07 07:27:36;;;;;;;6.10;2.10;;;;;;;;;;5119820;28;20024;-65
2021/08/07 07:30:02;;;;;;;6.35;2.45;;;;;;;;;;5125178;27;20019;-66
2021/08/07 07:32:28;;;;;;;11.68;2.63;;;;;;;;;;5121147;28;20020;-65
2021/08/07 07:34:55;;;;;;;4.53;2.50;;;;;;;;;;5118723;28;20019;-66
2021/08/07 07:37:21;;;;;;;7.40;2.38;;;;;;;;;;5121465;28;20038;-66
2021/08/07 07:39:47;;;;;;;9.57;2.78;;;;;;;;;;5122254;28;20051;-66
2021/08/07 07:42:13;;;;;;;4.95;2.17;;;;;;;;;;5108470;28;20363;-65
2021/08/07 07:44:39;;;;;;;5.00;2.50;;;;;;;;;;5119545;28;20466;-66
2021/08/07 07:47:05;;;;;;;8.15;2.70;;;;;;;;;;5108512;28;20052;-68
2021/08/07 07:49:31;;;;;;;4.00;2.15;;;;;;;;;;5094525;28;20028;-69
2021/08/07 07:51:57;;;;;;;4.50;2.30;;;;;;;;;;5104235;28;20085;-66
2021/08/07 07:54:23;;;;;;;2.72;2.20;;;;;;;;;;5105725;28;20028;-65
2021/08/07 07:56:49;;;;;;;9.07;2.67;;;;;;;;;;5096714;28;20456;-66
2021/08/07 07:59:15;;;;;;;5.97;2.50;;;;;;;;;;5095662;28;20026;-64
2021/08/07 08:01:41;;;;;;;3.35;2.30;;;;;;;;;;5102168;28;20460;-65
2021/08/07 08:04:07;;;;;;;4.45;2.28;;;;;;;;;;5095567;28;20465;-66
2021/08/07 08:06:34;;;;;;;5.68;2.08;;;;;;;;;;5105573;28;20235;-69
2021/08/07 08:09:00;;;;;;;3.00;2.40;;;;;;;;;;5099654;28;20036;-64
2021/08/07 08:11:26;;;;;;;2.25;2.05;;;;;;;;;;5101306;28;20370;-65
2021/08/07 08:13:52;;;;;;;3.55;2.30;;;;;;;;;;5103336;28;20023;-65
2021/08/07 08:16:18;;;;;;;3.90;2.55;;;;;;;;;;5099126;28;20032;-67
2021/08/07 08:18:44;;;;;;;5.13;2.33;;;;;;;;;;5097091;28;20047;-65
2021/08/07 08:21:10;;;;;;;4.18;2.50;;;;;;;;;;5096054;28;20066;-74
2021/08/07 08:23:36;;;;;;;5.13;2.13;;;;;;;;;;5094058;28;20024;-69
2021/08/07 08:26:03;;;;;;;3.53;2.10;;;;;;;;;;5094759;28;20090;-73
2021/08/07 08:28:29;;;;;;;7.05;2.75;;;;;;;;;;5101594;28;20440;-65
2021/08/07 08:30:55;;;;;;;5.03;2.30;;;;;;;;;;5099433;28;20024;-64
2021/08/07 08:33:21;;;;;;;2.65;2.13;;;;;;;;;;5103569;28;20051;-68
2021/08/07 08:35:47;;;;;;;4.22;2.20;;;;;;;;;;5095836;28;20028;-65
2021/08/07 08:38:14;;;;;;;6.90;2.30;;;;;;;;;;5094252;28;20028;-65
2021/08/07 08:40:40;;;;;;;6.80;2.55;;;;;;;;;;5094984;28;20040;-64
2021/08/07 08:43:06;;;;;;;3.40;2.17;;;;;;;;;;5094585;28;20020;-65
2021/08/07 08:45:32;;;;;;;7.20;2.50;;;;;;;;;;5090896;28;20012;-66
2021/08/07 08:48:00;;;;;;;8.73;2.30;;;;;;;;;;5096857;28;20484;-72
2021/08/07 08:50:27;;;;;;;2.42;2.03;;;;;;;;;;5109410;28;20040;-65
2021/08/07 08:52:55;;;;;;;3.20;2.08;;;;;;;;;;5097669;28;20779;-72
2021/08/07 08:55:21;;;;;;;2.50;2.00;;;;;;;;;;5094518;28;20032;-66
2021/08/07 08:57:48;;;;;;;2.80;2.00;;;;;;;;;;5093717;28;20036;-65
2021/08/07 09:00:14;;;;;;;2.97;2.15;;;;;;;;;;5093435;28;20043;-65
2021/08/07 09:02:40;;;;;;;6.40;2.33;;;;;;;;;;5091041;28;20035;-66
2021/08/07 09:05:07;;;;;;;2.20;2.00;;;;;;;;;;5091815;28;20074;-68
2021/08/07 09:07:33;;;;;;;8.85;2.53;;;;;;;;;;5089189;28;20043;-69
2021/08/07 09:09:59;;;;;;;9.68;2.13;;;;;;;;;;5093773;28;20051;-65
2021/08/07 09:12:39;;;;;;;2.05;1.88;;;;;;;;;;5095028;28;20023;-70
2021/08/07 09:15:06;;;;;;;2.20;2.00;;;;;;;;;;5099799;28;20414;-66
2021/08/07 09:17:32;;;;;;;4.47;2.20;;;;;;;;;;5105817;28;20431;-66
2021/08/07 09:19:59;;;;;;;2.90;2.10;;;;;;;;;;5097643;28;20446;-69
2021/08/07 09:22:27;;;;;;;5.13;2.20;;;;;;;;;;5092911;28;20062;-64
2021/08/07 09:24:56;;;;;;;3.38;1.98;;;;;;;;;;5090165;28;20077;-64
2021/08/07 09:27:28;;;;;;;6.60;2.75;;;;;;;;;;5100059;28;20031;-68
2021/08/07 09:29:54;;;;;;;3.40;2.03;;;;;;;;;;5094168;28;20031;-65
2021/08/07 09:32:20;;;;;;;3.28;2.08;;;;;;;;;;5092464;28;20036;-67
2021/08/07 09:35:02;;;;;;;3.03;1.90;;;;;;;;;;5093584;28;20024;-65
2021/08/07 09:37:28;;;;;;;3.03;2.22;;;;;;;;;;5093259;28;20042;-71
2021/08/07 09:39:54;;;;;;;2.88;2.10;;;;;;;;;;5092738;28;20146;-64
2021/08/07 09:42:20;;;;;;;11.15;2.17;;;;;;;;;;5093825;28;20054;-70
2021/08/07 09:44:59;;;;;;;10.93;2.30;;;;;;;;;;5088927;28;20096;-73
2021/08/07 09:47:25;;;;;;;6.78;2.30;;;;;;;;;;5092467;28;20059;-65
2021/08/07 09:49:52;;;;;;;4.00;2.22;;;;;;;;;;5093510;28;20099;-71
2021/08/07 09:52:18;;;;;;;2.75;2.10;;;;;;;;;;5091886;28;20081;-69
2021/08/07 09:54:45;;;;;;;4.70;2.25;;;;;;;;;;5092537;28;20031;-65
2021/08/07 09:57:23;;;;;;;4.38;1.90;;;;;;;;;;5093189;28;20038;-65
2021/08/07 09:59:50;;;;;;;4.15;2.15;;;;;;;;;;5092082;28;20020;-72
2021/08/07 10:02:38;;;;;;;5.35;2.15;;;;;;;;;;5093903;28;20106;-72
2021/08/07 10:05:08;;;;;;;3.78;2.00;;;;;;;;;;5097715;28;20035;-66
2021/08/07 10:07:34;;;;;;;5.05;2.17;;;;;;;;;;5099846;28;20027;-65
2021/08/07 10:10:01;;;;;;;3.08;2.00;;;;;;;;;;5092040;28;20099;-67
2021/08/07 10:12:27;;;;;;;2.88;2.10;;;;;;;;;;5091768;28;20032;-66
2021/08/07 10:14:53;;;;;;;5.32;2.40;;;;;;;;;;5096119;28;20438;-65
2021/08/07 10:17:23;;;;;;;4.55;2.17;;;;;;;;;;5085628;28;20127;-65
2021/08/07 10:19:50;;;;;;;2.75;2.10;;;;;;;;;;5093492;28;20026;-70
2021/08/07 10:22:16;;;;;;;2.88;2.10;;;;;;;;;;5091809;28;20039;-65
2021/08/07 10:24:44;;;;;;;4.93;2.15;;;;;;;;;;5092442;28;20020;-65
2021/08/07 10:27:10;;;;;;;3.17;2.13;;;;;;;;;;5093176;28;20042;-65
2021/08/07 10:29:42;;;;;;;5.13;2.25;;;;;;;;;;5091666;28;20038;-67
2021/08/07 10:32:09;;;;;;;5.47;2.33;;;;;;;;;;5091848;28;20024;-70
2021/08/07 10:34:36;;;;;;;7.85;2.47;;;;;;;;;;5091519;28;20062;-65
2021/08/07 10:37:03;;;;;;;4.03;2.22;;;;;;;;;;5092170;28;20477;-65
2021/08/07 10:39:30;;;;;;;8.32;2.50;;;;;;;;;;5091299;28;20043;-72
2021/08/07 10:42:00;;;;;;;6.32;2.40;;;;;;;;;;5099122;28;20051;-66
2021/08/07 10:44:27;;;;;;;3.47;2.25;;;;;;;;;;5092743;28;20032;-72
2021/08/07 10:46:54;;;;;;;4.35;2.22;;;;;;;;;;5104868;28;20067;-65
2021/08/07 10:49:32;;;;;;;3.63;2.40;;;;;;;;;;5092655;28;20032;-65
2021/08/07 10:51:58;;;;;;;5.07;2.38;;;;;;;;;;5084965;28;20028;-65
2021/08/07 10:54:28;;;;;;;7.38;2.42;;;;;;;;;;5092812;28;20032;-64
2021/08/07 10:56:55;;;;;;;9.40;2.40;;;;;;;;;;5098488;28;20075;-66
2021/08/07 10:59:25;;;;;;;5.53;2.30;;;;;;;;;;5092062;28;20024;-69
2021/08/07 11:01:52;;;;;;;5.57;2.53;;;;;;;;;;5094613;28;20023;-72
2021/08/07 11:04:21;;;;;;;4.43;2.30;;;;;;;;;;5092522;28;20406;-65
2021/08/07 11:06:49;;;;;;;7.00;2.40;;;;;;;;;;5093870;28;20389;-65
2021/08/07 11:09:16;;;;;;;3.13;2.30;;;;;;;;;;5102397;28;20036;-65
2021/08/07 11:11:42;;;;;;;7.90;2.38;;;;;;;;;;5086453;28;20381;-63
2021/08/07 11:14:28;;;;;;;4.68;2.25;;;;;;;;;;5092520;28;20027;-66
2021/08/07 11:17:06;;;;;;;2.83;2.15;;;;;;;;;;5092537;28;20060;-68
2021/08/07 11:19:49;;;;;;;9.35;2.25;;;;;;;;;;5098379;28;20024;-66
2021/08/07 11:22:15;;;;;;;10.07;2.53;;;;;;;;;;5091531;28;20052;-65
2021/08/07 11:24:44;;;;;;;4.75;2.35;;;;;;;;;;5097817;28;20051;-65
2021/08/07 11:27:19;;;;;;;6.03;2.45;;;;;;;;;;5094964;28;20035;-73
2021/08/07 11:30:04;;;;;;;5.20;2.17;;;;;;;;;;5103681;28;20030;-66
2021/08/07 11:32:30;;;;;;;7.75;2.90;;;;;;;;;;5093977;28;20491;-65
2021/08/07 11:34:56;;;;;;;5.32;2.28;;;;;;;;;;5094810;28;20589;-68
2021/08/07 11:37:24;;;;;;;5.15;2.30;;;;;;;;;;5096263;28;20055;-64
2021/08/07 11:40:10;;;;;;;5.72;2.45;;;;;;;;;;5094941;28;20048;-65
2021/08/07 11:42:40;;;;;;;3.20;2.20;;;;;;;;;;5098844;28;20024;-65
2021/08/07 11:45:06;;;;;;;6.18;2.58;;;;;;;;;;5094003;28;20477;-72
2021/08/07 11:47:32;;;;;;;4.07;2.20;;;;;;;;;;5094398;28;20097;-65
2021/08/07 11:49:59;;;;;;;6.88;2.50;;;;;;;;;;5094814;28;20016;-64
2021/08/07 11:52:29;;;;;;;9.00;2.85;;;;;;;;;;5096058;28;20436;-65
2021/08/07 11:54:56;;;;;;;7.97;2.25;;;;;;;;;;5095461;28;20106;-72
2021/08/07 11:57:23;;;;;;;9.75;2.22;;;;;;;;;;5094599;28;20036;-72
2021/08/07 11:59:49;;;;;;;6.25;2.40;;;;;;;;;;5095492;28;20031;-65
2021/08/07 12:02:15;;;;;;;3.75;2.60;;;;;;;;;;5095436;28;20027;-73
2021/08/07 12:04:42;;;;;;;3.22;2.03;;;;;;;;;;5094540;28;20418;-73
2021/08/07 12:07:11;;;;;;;4.03;2.10;;;;;;;;;;5092061;28;20032;-65
2021/08/07 12:09:38;;;;;;;6.82;2.22;;;;;;;;;;5094345;28;20069;-64
2021/08/07 12:12:04;;;;;;;4.00;2.20;;;;;;;;;;5095343;28;20035;-65
2021/08/07 12:14:30;;;;;;;8.68;2.13;;;;;;;;;;5094473;28;20048;-70
2021/08/07 12:17:05;;;;;;;7.10;2.30;;;;;;;;;;5093513;28;20036;-72
2021/08/07 12:19:31;;;;;;;4.50;2.30;;;;;;;;;;5096224;28;20514;-70
2021/08/07 12:22:04;;;;;;;7.85;2.17;;;;;;;;;;5094029;28;20067;-72
2021/08/07 12:24:30;;;;;;;6.25;2.15;;;;;;;;;;5092981;28;20028;-70
2021/08/07 12:26:57;;;;;;;5.88;2.20;;;;;;;;;;5095485;28;20031;-73
2021/08/07 12:29:25;;;;;;;5.63;2.13;;;;;;;;;;5101524;28;20607;-68
2021/08/07 12:31:51;;;;;;;3.42;1.83;;;;;;;;;;5095826;28;20016;-72
2021/08/07 12:34:19;;;;;;;5.15;2.10;;;;;;;;;;5094797;28;20389;-73
2021/08/07 12:36:57;;;;;;;3.40;2.30;;;;;;;;;;5094270;28;20044;-73
2021/08/07 12:39:23;;;;;;;4.25;1.95;;;;;;;;;;5095086;28;20016;-73
2021/08/07 12:41:50;;;;;;;5.05;2.30;;;;;;;;;;5095080;28;20020;-71
2021/08/07 12:44:20;;;;;;;4.13;2.10;;;;;;;;;;5094349;28;20107;-73
2021/08/07 12:46:47;;;;;;;6.63;2.40;;;;;;;;;;5088958;28;20393;-67
2021/08/07 12:49:13;;;;;;;7.35;3.28;;;;;;;;;;5094650;28;20028;-65
2021/08/07 12:51:39;;;;;;;9.05;3.28;;;;;;;;;;5097903;28;20024;-72
2021/08/07 12:54:16;;;;;;;4.47;2.78;;;;;;;;;;5103773;28;20543;-71
2021/08/07 12:56:46;;;;;;;6.38;2.70;;;;;;;;;;5090875;28;20118;-73
2021/08/07 12:59:12;;;;;;;6.63;2.50;;;;;;;;;;5092609;28;20134;-67
2021/08/07 13:01:39;;;;;;;4.80;2.20;;;;;;;;;;5089185;28;20030;-67
2021/08/07 13:04:09;;;;;;;4.53;2.03;;;;;;;;;;5093268;28;20028;-72
2021/08/07 13:06:54;;;;;;;3.10;2.20;;;;;;;;;;5093394;28;20028;-65
2021/08/07 13:09:27;;;;;;;5.50;2.33;;;;;;;;;;5101842;28;20077;-72
2021/08/07 13:12:13;;;;;;;4.45;2.47;;;;;;;;;;5096745;28;20067;-72
2021/08/07 13:14:42;;;;;;;2.88;2.15;;;;;;;;;;5097511;28;20020;-74
2021/08/07 13:17:09;;;;;;;4.97;2.40;;;;;;;;;;5094559;28;20089;-72
2021/08/07 13:19:43;;;;;;;3.72;2.70;;;;;;;;;;5094458;28;20027;-71
2021/08/07 13:22:10;;;;;;;4.95;2.10;;;;;;;;;;5091669;28;20031;-70
2021/08/07 13:24:37;;;;;;;3.17;2.30;;;;;;;;;;5092544;28;20043;-66
2021/08/07 13:27:08;;;;;;;5.22;2.47;;;;;;;;;;5091924;28;20028;-71
2021/08/07 13:29:34;;;;;;;4.47;2.30;;;;;;;;;;5093345;28;20030;-73
2021/08/07 13:32:15;;;;;;;4.90;2.35;;;;;;;;;;5096899;28;20111;-68
2021/08/07 13:34:41;;;;;;;4.68;2.10;;;;;;;;;;5091187;28;20056;-71
2021/08/07 13:37:07;;;;;;;2.63;2.10;;;;;;;;;;5098201;28;20431;-66
2021/08/07 13:39:37;;;;;;;3.83;2.22;;;;;;;;;;5091957;28;20032;-65
2021/08/07 13:42:04;;;;;;;2.65;2.20;;;;;;;;;;5100267;28;20024;-68
2021/08/07 13:44:30;;;;;;;3.65;2.75;;;;;;;;;;5089697;28;20028;-67
2021/08/07 13:46:56;;;;;;;6.28;2.92;;;;;;;;;;5090835;28;20123;-65
2021/08/07 13:49:22;;;;;;;2.60;1.90;;;;;;;;;;5096656;28;20067;-73
2021/08/07 13:51:48;;;;;;;4.22;3.20;;;;;;;;;;5099524;28;20035;-68
2021/08/07 13:54:14;;;;;;;2.55;2.20;;;;;;;;;;5097114;28;20035;-70
2021/08/07 13:56:40;;;;;;;3.28;2.35;;;;;;;;;;5088470;28;20024;-72
2021/08/07 13:59:07;;;;;;;5.18;2.35;;;;;;;;;;5091391;28;20035;-66
2021/08/07 14:01:33;;;;;;;3.17;2.25;;;;;;;;;;5105663;28;20019;-73
2021/08/07 14:03:59;;;;;;;5.07;3.10;;;;;;;;;;5091107;28;20050;-64
2021/08/07 14:06:25;;;;;;;7.30;2.85;;;;;;;;;;5091405;28;20067;-66
2021/08/07 14:08:52;;;;;;;3.58;2.80;;;;;;;;;;5091061;28;20069;-73
2021/08/07 14:11:18;;;;;;;5.43;2.80;;;;;;;;;;5091641;28;20043;-66
2021/08/07 14:13:45;;;;;;;3.28;2.50;;;;;;;;;;5089455;28;20094;-71
2021/08/07 14:16:11;;;;;;;7.65;3.88;;;;;;;;;;5088033;28;20032;-73
2021/08/07 14:18:38;;;;;;;9.23;3.30;;;;;;;;;;5085665;28;20027;-67
2021/08/07 14:21:04;;;;;;;5.10;2.97;;;;;;;;;;5090583;28;20093;-70
2021/08/07 14:23:30;;;;;;;4.97;2.80;;;;;;;;;;5084937;28;20099;-68
2021/08/07 14:25:57;;;;;;;4.78;2.70;;;;;;;;;;5088521;28;20012;-66
2021/08/07 14:28:23;;;;;;;5.95;3.00;;;;;;;;;;5086733;28;20103;-75
2021/08/07 14:30:49;;;;;;;5.78;2.80;;;;;;;;;;5092035;28;20051;-69
2021/08/07 14:33:15;;;;;;;6.75;3.05;;;;;;;;;;5091936;28;20020;-67
2021/08/07 14:35:41;;;;;;;4.75;2.83;;;;;;;;;;5090177;28;20024;-69
2021/08/07 14:38:07;;;;;;;6.20;2.80;;;;;;;;;;5090296;28;20032;-69
2021/08/07 14:40:33;;;;;;;4.20;2.70;;;;;;;;;;5090607;28;20032;-70
2021/08/07 14:42:59;;;;;;;5.13;2.90;;;;;;;;;;5090713;28;20094;-69
2021/08/07 14:45:26;;;;;;;4.85;2.60;;;;;;;;;;5092779;28;20646;-68
2021/08/07 14:47:52;;;;;;;4.13;2.40;;;;;;;;;;5091501;28;20076;-67
2021/08/07 14:50:18;;;;;;;4.65;2.65;;;;;;;;;;5089540;28;20156;-66
2021/08/07 14:52:44;;;;;;;5.10;2.65;;;;;;;;;;5094818;28;20023;-69
2021/08/07 14:55:10;;;;;;;8.30;2.67;;;;;;;;;;5091494;28;20030;-69
2021/08/07 14:57:37;;;;;;;5.40;2.78;;;;;;;;;;5099601;28;20077;-69